sensor_id;sensor_type;location;lat;lon;timestamp;temperature;humidity
18291;DHT22;9271;48.590;8.866;2023-04-07T00:01:08;8.40;99.90
18291;DHT22;9271;48.590;8.866;2023-04-07T00:03:35;8.40;99.90
18291;DHT22;9271;48.590;8.866;2023-04-07T00:06:04;8.40;99.90
18291;DHT22;9271;48.590;8.866;2023-04-07T00:08:31;8.30;99.90
18291;DHT22;9271;48.590;8.866;2023-04-07T00:10:57;8.40;99.90
18291;DHT22;9271;48.590;8.866;2023-04-07T00:13:24;8.50;99.90
18291;DHT22;9271;48.590;8.866;2023-04-07T00:15:51;8.50;99.90
18291;DHT22;9271;48.590;8.866;2023-04-07T00:18:18;8.50;99.90
18291;DHT22;9271;48.590;8.866;2023-04-07T00:20:44;8.40;99.90
18291;DHT22;9271;48.590;8.866;2023-04-07T00:23:12;8.60;99.90
18291;DHT22;9271;48.590;8.866;2023-04-07T00:25:39;8.70;99.90
18291;DHT22;9271;48.590;8.866;2023-04-07T00:28:06;8.70;99.90
18291;DHT22;9271;48.590;8.866;2023-04-07T00:30:32;8.70;99.90
18291;DHT22;9271;48.590;8.866;2023-04-07T00:32:59;8.80;99.90
18291;DHT22;9271;48.590;8.866;2023-04-07T00:35:25;8.80;99.90
18291;DHT22;9271;48.590;8.866;2023-04-07T00:37:52;8.80;99.90
18291;DHT22;9271;48.590;8.866;2023-04-07T00:40:20;8.80;99.90
18291;DHT22;9271;48.590;8.866;2023-04-07T00:42:47;8.90;99.90
18291;DHT22;9271;48.590;8.866;2023-04-07T00:45:13;8.80;99.90
18291;DHT22;9271;48.590;8.866;2023-04-07T00:47:40;8.70;99.90
18291;DHT22;9271;48.590;8.866;2023-04-07T00:50:08;8.80;99.90
18291;DHT22;9271;48.590;8.866;2023-04-07T00:52:35;8.80;99.90
18291;DHT22;9271;48.590;8.866;2023-04-07T00:55:02;8.70;99.90
18291;DHT22;9271;48.590;8.866;2023-04-07T00:57:30;8.80;99.90
18291;DHT22;9271;48.590;8.866;2023-04-07T00:59:56;8.80;99.90
18291;DHT22;9271;48.590;8.866;2023-04-07T01:02:32;8.80;99.90
18291;DHT22;9271;48.590;8.866;2023-04-07T01:05:08;8.80;99.90
18291;DHT22;9271;48.590;8.866;2023-04-07T01:07:43;9.00;99.90
18291;DHT22;9271;48.590;8.866;2023-04-07T01:10:18;8.90;99.90
18291;DHT22;9271;48.590;8.866;2023-04-07T01:12:53;8.70;99.90
18291;DHT22;9271;48.590;8.866;2023-04-07T01:15:24;8.70;99.90
18291;DHT22;9271;48.590;8.866;2023-04-07T01:17:57;8.80;99.90
18291;DHT22;9271;48.590;8.866;2023-04-07T01:20:26;8.90;99.90
18291;DHT22;9271;48.590;8.866;2023-04-07T01:22:58;9.00;99.90
18291;DHT22;9271;48.590;8.866;2023-04-07T01:25:37;9.00;99.90
18291;DHT22;9271;48.590;8.866;2023-04-07T01:28:25;8.90;99.90
18291;DHT22;9271;48.590;8.866;2023-04-07T01:30:59;8.70;99.90
18291;DHT22;9271;48.590;8.866;2023-04-07T01:33:29;8.70;99.90
18291;DHT22;9271;48.590;8.866;2023-04-07T01:35:58;8.90;99.90
18291;DHT22;9271;48.590;8.866;2023-04-07T01:38:27;9.00;99.90
18291;DHT22;9271;48.590;8.866;2023-04-07T01:40:55;8.90;99.90
18291;DHT22;9271;48.590;8.866;2023-04-07T01:43:23;9.00;99.90
18291;DHT22;9271;48.590;8.866;2023-04-07T01:45:51;8.90;99.90
18291;DHT22;9271;48.590;8.866;2023-04-07T01:48:20;9.00;99.90
18291;DHT22;9271;48.590;8.866;2023-04-07T01:50:47;9.00;99.90
18291;DHT22;9271;48.590;8.866;2023-04-07T01:53:15;8.80;99.90
18291;DHT22;9271;48.590;8.866;2023-04-07T01:55:42;8.80;99.90
18291;DHT22;9271;48.590;8.866;2023-04-07T01:58:09;8.90;99.90
18291;DHT22;9271;48.590;8.866;2023-04-07T02:00:35;9.10;99.90
18291;DHT22;9271;48.590;8.866;2023-04-07T02:03:08;9.20;99.90
18291;DHT22;9271;48.590;8.866;2023-04-07T02:05:38;9.30;99.90
18291;DHT22;9271;48.590;8.866;2023-04-07T02:08:07;9.30;99.90
18291;DHT22;9271;48.590;8.866;2023-04-07T02:10:36;9.40;99.90
18291;DHT22;9271;48.590;8.866;2023-04-07T02:13:05;9.30;99.90
18291;DHT22;9271;48.590;8.866;2023-04-07T02:15:33;9.20;99.90
18291;DHT22;9271;48.590;8.866;2023-04-07T02:18:02;9.10;99.90
18291;DHT22;9271;48.590;8.866;2023-04-07T02:20:29;9.00;99.90
18291;DHT22;9271;48.590;8.866;2023-04-07T02:22:58;8.90;99.90
18291;DHT22;9271;48.590;8.866;2023-04-07T02:25:26;8.90;99.90
18291;DHT22;9271;48.590;8.866;2023-04-07T02:27:55;9.00;99.90
18291;DHT22;9271;48.590;8.866;2023-04-07T02:30:22;9.00;99.90
18291;DHT22;9271;48.590;8.866;2023-04-07T02:32:49;9.10;99.90
18291;DHT22;9271;48.590;8.866;2023-04-07T02:35:16;9.10;99.90
18291;DHT22;9271;48.590;8.866;2023-04-07T02:37:43;9.00;99.90
18291;DHT22;9271;48.590;8.866;2023-04-07T02:40:11;9.10;99.90
18291;DHT22;9271;48.590;8.866;2023-04-07T02:42:38;9.00;99.90
18291;DHT22;9271;48.590;8.866;2023-04-07T02:45:06;8.90;99.90
18291;DHT22;9271;48.590;8.866;2023-04-07T02:47:33;9.00;99.90
18291;DHT22;9271;48.590;8.866;2023-04-07T02:50:00;9.10;99.90
18291;DHT22;9271;48.590;8.866;2023-04-07T02:52:27;9.00;99.90
18291;DHT22;9271;48.590;8.866;2023-04-07T02:54:54;9.10;99.90
18291;DHT22;9271;48.590;8.866;2023-04-07T02:57:22;8.90;99.90
18291;DHT22;9271;48.590;8.866;2023-04-07T02:59:49;8.70;99.90
18291;DHT22;9271;48.590;8.866;2023-04-07T03:02:15;8.50;99.90
18291;DHT22;9271;48.590;8.866;2023-04-07T03:04:42;8.80;99.90
18291;DHT22;9271;48.590;8.866;2023-04-07T03:07:09;8.90;99.90
18291;DHT22;9271;48.590;8.866;2023-04-07T03:09:35;8.90;99.90
18291;DHT22;9271;48.590;8.866;2023-04-07T03:12:02;9.10;99.90
18291;DHT22;9271;48.590;8.866;2023-04-07T03:14:30;9.00;99.90
18291;DHT22;9271;48.590;8.866;2023-04-07T03:16:57;8.90;99.90
18291;DHT22;9271;48.590;8.866;2023-04-07T03:19:23;8.90;99.90
18291;DHT22;9271;48.590;8.866;2023-04-07T03:21:50;8.90;99.90
18291;DHT22;9271;48.590;8.866;2023-04-07T03:24:17;8.90;99.90
18291;DHT22;9271;48.590;8.866;2023-04-07T03:26:43;8.90;99.90
18291;DHT22;9271;48.590;8.866;2023-04-07T03:29:10;8.60;99.90
18291;DHT22;9271;48.590;8.866;2023-04-07T03:31:38;8.70;99.90
18291;DHT22;9271;48.590;8.866;2023-04-07T03:34:04;8.50;99.90
18291;DHT22;9271;48.590;8.866;2023-04-07T03:36:31;8.50;99.90
18291;DHT22;9271;48.590;8.866;2023-04-07T03:38:58;8.70;99.90
18291;DHT22;9271;48.590;8.866;2023-04-07T03:41:24;8.80;99.90
18291;DHT22;9271;48.590;8.866;2023-04-07T03:43:51;8.80;99.90
18291;DHT22;9271;48.590;8.866;2023-04-07T03:46:18;8.80;99.90
18291;DHT22;9271;48.590;8.866;2023-04-07T03:48:47;8.90;99.90
18291;DHT22;9271;48.590;8.866;2023-04-07T03:51:14;8.70;99.90
18291;DHT22;9271;48.590;8.866;2023-04-07T03:53:40;8.90;99.90
18291;DHT22;9271;48.590;8.866;2023-04-07T03:56:07;8.90;99.90
18291;DHT22;9271;48.590;8.866;2023-04-07T03:58:34;8.90;99.90
18291;DHT22;9271;48.590;8.866;2023-04-07T04:01:00;8.90;99.90
18291;DHT22;9271;48.590;8.866;2023-04-07T04:03:27;8.90;99.90
18291;DHT22;9271;48.590;8.866;2023-04-07T04:05:55;8.80;99.90
18291;DHT22;9271;48.590;8.866;2023-04-07T04:08:21;8.70;99.90
18291;DHT22;9271;48.590;8.866;2023-04-07T04:10:48;8.30;99.90
18291;DHT22;9271;48.590;8.866;2023-04-07T04:13:15;8.00;99.90
18291;DHT22;9271;48.590;8.866;2023-04-07T04:15:42;8.20;99.90
18291;DHT22;9271;48.590;8.866;2023-04-07T04:18:09;8.50;99.90
18291;DHT22;9271;48.590;8.866;2023-04-07T04:20:35;8.50;99.90
18291;DHT22;9271;48.590;8.866;2023-04-07T04:23:04;8.60;99.90
18291;DHT22;9271;48.590;8.866;2023-04-07T04:25:30;8.20;99.90
18291;DHT22;9271;48.590;8.866;2023-04-07T04:27:57;8.10;99.90
18291;DHT22;9271;48.590;8.866;2023-04-07T04:30:24;8.00;99.90
18291;DHT22;9271;48.590;8.866;2023-04-07T04:32:50;8.10;99.90
18291;DHT22;9271;48.590;8.866;2023-04-07T04:35:17;7.80;99.90
18291;DHT22;9271;48.590;8.866;2023-04-07T04:37:44;7.60;99.90
18291;DHT22;9271;48.590;8.866;2023-04-07T04:40:13;7.80;99.90
18291;DHT22;9271;48.590;8.866;2023-04-07T04:42:40;8.20;99.90
18291;DHT22;9271;48.590;8.866;2023-04-07T04:45:07;8.40;99.90
18291;DHT22;9271;48.590;8.866;2023-04-07T04:47:34;8.60;99.90
18291;DHT22;9271;48.590;8.866;2023-04-07T04:50:03;8.60;99.90
18291;DHT22;9271;48.590;8.866;2023-04-07T04:54:57;8.60;99.90
18291;DHT22;9271;48.590;8.866;2023-04-07T04:57:25;8.60;99.90
18291;DHT22;9271;48.590;8.866;2023-04-07T04:59:52;8.60;99.90
18291;DHT22;9271;48.590;8.866;2023-04-07T05:02:19;8.60;99.90
18291;DHT22;9271;48.590;8.866;2023-04-07T05:04:46;8.60;99.90
18291;DHT22;9271;48.590;8.866;2023-04-07T05:07:13;8.60;99.90
18291;DHT22;9271;48.590;8.866;2023-04-07T05:09:39;8.80;99.90
18291;DHT22;9271;48.590;8.866;2023-04-07T05:12:06;8.70;99.90
18291;DHT22;9271;48.590;8.866;2023-04-07T05:14:34;8.80;99.90
18291;DHT22;9271;48.590;8.866;2023-04-07T05:17:01;8.70;99.90
18291;DHT22;9271;48.590;8.866;2023-04-07T05:19:27;8.80;99.90
18291;DHT22;9271;48.590;8.866;2023-04-07T05:21:54;8.80;99.90
18291;DHT22;9271;48.590;8.866;2023-04-07T05:24:21;8.80;99.90
18291;DHT22;9271;48.590;8.866;2023-04-07T05:26:48;8.80;99.90
18291;DHT22;9271;48.590;8.866;2023-04-07T05:29:14;8.80;99.90
18291;DHT22;9271;48.590;8.866;2023-04-07T05:31:42;8.70;99.90
18291;DHT22;9271;48.590;8.866;2023-04-07T05:34:09;8.60;99.90
18291;DHT22;9271;48.590;8.866;2023-04-07T05:36:36;8.70;99.90
18291;DHT22;9271;48.590;8.866;2023-04-07T05:39:03;9.00;99.90
18291;DHT22;9271;48.590;8.866;2023-04-07T05:41:29;9.10;99.90
18291;DHT22;9271;48.590;8.866;2023-04-07T05:43:56;9.20;99.90
18291;DHT22;9271;48.590;8.866;2023-04-07T05:46:23;9.30;99.90
18291;DHT22;9271;48.590;8.866;2023-04-07T05:48:51;9.40;99.90
18291;DHT22;9271;48.590;8.866;2023-04-07T05:51:17;9.30;99.90
18291;DHT22;9271;48.590;8.866;2023-04-07T05:53:44;9.20;99.90
18291;DHT22;9271;48.590;8.866;2023-04-07T05:56:10;9.50;99.90
18291;DHT22;9271;48.590;8.866;2023-04-07T05:58:37;9.60;99.90
18291;DHT22;9271;48.590;8.866;2023-04-07T06:01:04;9.80;99.90
18291;DHT22;9271;48.590;8.866;2023-04-07T06:03:30;9.80;99.90
18291;DHT22;9271;48.590;8.866;2023-04-07T06:05:58;10.10;99.90
18291;DHT22;9271;48.590;8.866;2023-04-07T06:08:25;10.50;99.90
18291;DHT22;9271;48.590;8.866;2023-04-07T06:10:52;10.90;99.70
18291;DHT22;9271;48.590;8.866;2023-04-07T06:13:19;11.10;99.40
18291;DHT22;9271;48.590;8.866;2023-04-07T06:15:45;11.30;99.10
18291;DHT22;9271;48.590;8.866;2023-04-07T06:18:12;11.60;98.40
18291;DHT22;9271;48.590;8.866;2023-04-07T06:20:39;12.00;98.00
18291;DHT22;9271;48.590;8.866;2023-04-07T06:23:07;12.40;97.20
18291;DHT22;9271;48.590;8.866;2023-04-07T06:25:33;12.60;95.90
18291;DHT22;9271;48.590;8.866;2023-04-07T06:28:00;12.90;95.60
18291;DHT22;9271;48.590;8.866;2023-04-07T06:30:27;13.10;95.20
18291;DHT22;9271;48.590;8.866;2023-04-07T06:32:53;13.10;93.80
18291;DHT22;9271;48.590;8.866;2023-04-07T06:35:20;13.10;94.20
18291;DHT22;9271;48.590;8.866;2023-04-07T06:37:47;13.10;93.30
18291;DHT22;9271;48.590;8.866;2023-04-07T06:40:15;13.00;93.40
18291;DHT22;9271;48.590;8.866;2023-04-07T06:42:42;13.40;93.70
18291;DHT22;9271;48.590;8.866;2023-04-07T06:45:09;14.00;92.70
18291;DHT22;9271;48.590;8.866;2023-04-07T06:47:36;14.20;91.50
18291;DHT22;9271;48.590;8.866;2023-04-07T06:50:03;14.50;91.90
18291;DHT22;9271;48.590;8.866;2023-04-07T06:52:30;14.50;91.70
18291;DHT22;9271;48.590;8.866;2023-04-07T06:54:57;14.60;91.20
18291;DHT22;9271;48.590;8.866;2023-04-07T06:57:25;14.30;90.40
18291;DHT22;9271;48.590;8.866;2023-04-07T06:59:51;13.90;90.90
18291;DHT22;9271;48.590;8.866;2023-04-07T07:02:18;13.30;91.60
18291;DHT22;9271;48.590;8.866;2023-04-07T07:04:45;13.30;92.00
18291;DHT22;9271;48.590;8.866;2023-04-07T07:07:11;13.20;92.40
18291;DHT22;9271;48.590;8.866;2023-04-07T07:09:38;13.10;92.90
18291;DHT22;9271;48.590;8.866;2023-04-07T07:12:05;12.90;93.40
18291;DHT22;9271;48.590;8.866;2023-04-07T07:14:33;13.20;92.80
18291;DHT22;9271;48.590;8.866;2023-04-07T07:17:00;14.20;92.00
18291;DHT22;9271;48.590;8.866;2023-04-07T07:19:26;15.80;90.40
18291;DHT22;9271;48.590;8.866;2023-04-07T07:21:53;16.50;86.70
18291;DHT22;9271;48.590;8.866;2023-04-07T07:24:20;17.30;84.80
18291;DHT22;9271;48.590;8.866;2023-04-07T07:26:47;19.10;81.00
18291;DHT22;9271;48.590;8.866;2023-04-07T07:29:13;20.80;73.80
18291;DHT22;9271;48.590;8.866;2023-04-07T07:31:42;21.60;67.40
18291;DHT22;9271;48.590;8.866;2023-04-07T07:34:08;22.80;63.70
18291;DHT22;9271;48.590;8.866;2023-04-07T07:36:35;22.70;59.80
18291;DHT22;9271;48.590;8.866;2023-04-07T07:39:02;23.50;58.30
18291;DHT22;9271;48.590;8.866;2023-04-07T07:41:29;23.80;56.80
18291;DHT22;9271;48.590;8.866;2023-04-07T07:43:56;25.50;52.70
18291;DHT22;9271;48.590;8.866;2023-04-07T07:46:23;26.90;48.90
18291;DHT22;9271;48.590;8.866;2023-04-07T07:48:52;27.70;47.40
18291;DHT22;9271;48.590;8.866;2023-04-07T07:51:19;26.30;44.40
18291;DHT22;9271;48.590;8.866;2023-04-07T07:53:46;26.70;44.70
18291;DHT22;9271;48.590;8.866;2023-04-07T07:56:13;27.00;44.30
18291;DHT22;9271;48.590;8.866;2023-04-07T07:58:39;27.70;42.70
18291;DHT22;9271;48.590;8.866;2023-04-07T08:01:06;28.40;41.10
18291;DHT22;9271;48.590;8.866;2023-04-07T08:03:32;27.50;42.30
18291;DHT22;9271;48.590;8.866;2023-04-07T08:06:00;28.40;41.10
18291;DHT22;9271;48.590;8.866;2023-04-07T08:08:27;27.50;40.20
18291;DHT22;9271;48.590;8.866;2023-04-07T08:10:54;27.60;41.20
18291;DHT22;9271;48.590;8.866;2023-04-07T08:13:21;26.00;41.60
18291;DHT22;9271;48.590;8.866;2023-04-07T08:15:47;26.80;42.50
18291;DHT22;9271;48.590;8.866;2023-04-07T08:18:14;26.30;41.80
18291;DHT22;9271;48.590;8.866;2023-04-07T08:20:40;25.70;43.30
18291;DHT22;9271;48.590;8.866;2023-04-07T08:23:08;26.20;43.00
18291;DHT22;9271;48.590;8.866;2023-04-07T08:25:35;26.20;43.00
18291;DHT22;9271;48.590;8.866;2023-04-07T08:28:02;26.20;42.40
18291;DHT22;9271;48.590;8.866;2023-04-07T08:30:28;26.60;42.40
18291;DHT22;9271;48.590;8.866;2023-04-07T08:32:55;27.30;41.60
18291;DHT22;9271;48.590;8.866;2023-04-07T08:35:22;28.10;40.50
18291;DHT22;9271;48.590;8.866;2023-04-07T08:37:49;27.30;40.60
18291;DHT22;9271;48.590;8.866;2023-04-07T08:40:17;26.40;40.40
18291;DHT22;9271;48.590;8.866;2023-04-07T08:42:46;26.90;43.00
18291;DHT22;9271;48.590;8.866;2023-04-07T08:45:16;28.80;39.40
18291;DHT22;9271;48.590;8.866;2023-04-07T08:47:43;29.40;37.90
18291;DHT22;9271;48.590;8.866;2023-04-07T08:50:13;29.90;35.80
18291;DHT22;9271;48.590;8.866;2023-04-07T08:52:44;30.00;35.10
18291;DHT22;9271;48.590;8.866;2023-04-07T08:55:12;28.90;35.50
18291;DHT22;9271;48.590;8.866;2023-04-07T08:57:40;26.20;39.30
18291;DHT22;9271;48.590;8.866;2023-04-07T09:00:08;22.70;45.40
18291;DHT22;9271;48.590;8.866;2023-04-07T09:02:37;23.70;43.90
18291;DHT22;9271;48.590;8.866;2023-04-07T09:05:06;24.70;43.90
18291;DHT22;9271;48.590;8.866;2023-04-07T09:07:33;26.30;42.60
18291;DHT22;9271;48.590;8.866;2023-04-07T09:10:01;27.40;40.90
18291;DHT22;9271;48.590;8.866;2023-04-07T09:12:28;27.80;38.90
18291;DHT22;9271;48.590;8.866;2023-04-07T09:14:57;28.70;38.20
18291;DHT22;9271;48.590;8.866;2023-04-07T09:17:24;28.40;36.60
18291;DHT22;9271;48.590;8.866;2023-04-07T09:19:51;29.60;35.70
18291;DHT22;9271;48.590;8.866;2023-04-07T09:22:33;30.40;34.50
18291;DHT22;9271;48.590;8.866;2023-04-07T09:25:09;31.40;33.70
18291;DHT22;9271;48.590;8.866;2023-04-07T09:27:36;30.50;33.60
18291;DHT22;9271;48.590;8.866;2023-04-07T09:30:12;28.90;34.70
18291;DHT22;9271;48.590;8.866;2023-04-07T09:32:39;26.80;38.20
18291;DHT22;9271;48.590;8.866;2023-04-07T09:35:07;25.50;39.40
18291;DHT22;9271;48.590;8.866;2023-04-07T09:37:34;24.40;41.50
18291;DHT22;9271;48.590;8.866;2023-04-07T09:40:02;23.20;43.90
18291;DHT22;9271;48.590;8.866;2023-04-07T09:42:29;22.60;43.80
18291;DHT22;9271;48.590;8.866;2023-04-07T09:44:57;22.50;43.30
18291;DHT22;9271;48.590;8.866;2023-04-07T09:47:29;20.90;44.90
18291;DHT22;9271;48.590;8.866;2023-04-07T09:49:57;19.10;52.00
18291;DHT22;9271;48.590;8.866;2023-04-07T09:52:48;18.70;52.30
18291;DHT22;9271;48.590;8.866;2023-04-07T09:55:16;17.80;53.00
18291;DHT22;9271;48.590;8.866;2023-04-07T09:57:45;17.20;53.10
18291;DHT22;9271;48.590;8.866;2023-04-07T10:00:12;16.90;54.40
18291;DHT22;9271;48.590;8.866;2023-04-07T10:02:41;16.80;55.60
18291;DHT22;9271;48.590;8.866;2023-04-07T10:05:09;17.00;54.80
18291;DHT22;9271;48.590;8.866;2023-04-07T10:07:36;17.00;55.20
18291;DHT22;9271;48.590;8.866;2023-04-07T10:10:03;16.70;56.20
18291;DHT22;9271;48.590;8.866;2023-04-07T10:12:33;17.00;58.80
18291;DHT22;9271;48.590;8.866;2023-04-07T10:15:00;17.20;59.20
18291;DHT22;9271;48.590;8.866;2023-04-07T10:17:28;18.50;60.00
18291;DHT22;9271;48.590;8.866;2023-04-07T10:19:57;18.90;58.80
18291;DHT22;9271;48.590;8.866;2023-04-07T10:22:24;19.20;59.60
18291;DHT22;9271;48.590;8.866;2023-04-07T10:24:55;19.20;60.30
18291;DHT22;9271;48.590;8.866;2023-04-07T10:27:28;18.60;61.90
18291;DHT22;9271;48.590;8.866;2023-04-07T10:29:56;17.90;65.00
18291;DHT22;9271;48.590;8.866;2023-04-07T10:32:24;17.30;66.30
18291;DHT22;9271;48.590;8.866;2023-04-07T10:34:58;17.00;68.90
18291;DHT22;9271;48.590;8.866;2023-04-07T10:37:26;16.80;72.00
18291;DHT22;9271;48.590;8.866;2023-04-07T10:40:26;16.60;72.40
18291;DHT22;9271;48.590;8.866;2023-04-07T10:42:53;16.50;75.80
18291;DHT22;9271;48.590;8.866;2023-04-07T10:45:51;16.50;76.30
18291;DHT22;9271;48.590;8.866;2023-04-07T10:48:19;16.60;76.00
18291;DHT22;9271;48.590;8.866;2023-04-07T10:51:12;16.50;74.90
18291;DHT22;9271;48.590;8.866;2023-04-07T10:57:07;16.00;77.90
18291;DHT22;9271;48.590;8.866;2023-04-07T10:59:37;16.10;77.30
18291;DHT22;9271;48.590;8.866;2023-04-07T11:02:32;16.10;77.40
18291;DHT22;9271;48.590;8.866;2023-04-07T11:04:59;16.20;73.70
18291;DHT22;9271;48.590;8.866;2023-04-07T11:07:45;16.00;75.50
18291;DHT22;9271;48.590;8.866;2023-04-07T11:10:13;16.30;73.10
18291;DHT22;9271;48.590;8.866;2023-04-07T11:12:41;16.50;73.40
18291;DHT22;9271;48.590;8.866;2023-04-07T11:15:18;16.90;73.00
18291;DHT22;9271;48.590;8.866;2023-04-07T11:17:46;17.40;71.50
18291;DHT22;9271;48.590;8.866;2023-04-07T11:20:13;17.50;69.60
18291;DHT22;9271;48.590;8.866;2023-04-07T11:22:39;17.40;70.50
18291;DHT22;9271;48.590;8.866;2023-04-07T11:25:20;17.20;71.00
18291;DHT22;9271;48.590;8.866;2023-04-07T11:27:52;17.30;72.10
18291;DHT22;9271;48.590;8.866;2023-04-07T11:30:18;17.50;72.70
18291;DHT22;9271;48.590;8.866;2023-04-07T11:32:47;18.00;73.20
18291;DHT22;9271;48.590;8.866;2023-04-07T11:35:15;17.90;70.20
18291;DHT22;9271;48.590;8.866;2023-04-07T11:37:42;17.70;70.30
18291;DHT22;9271;48.590;8.866;2023-04-07T11:40:09;17.90;69.80
18291;DHT22;9271;48.590;8.866;2023-04-07T11:42:39;17.90;69.80
18291;DHT22;9271;48.590;8.866;2023-04-07T11:45:15;18.10;68.00
18291;DHT22;9271;48.590;8.866;2023-04-07T11:47:42;17.70;66.20
18291;DHT22;9271;48.590;8.866;2023-04-07T11:50:09;17.90;66.00
18291;DHT22;9271;48.590;8.866;2023-04-07T11:52:43;18.50;64.30
18291;DHT22;9271;48.590;8.866;2023-04-07T11:55:17;19.00;60.00
18291;DHT22;9271;48.590;8.866;2023-04-07T11:57:45;19.20;61.70
18291;DHT22;9271;48.590;8.866;2023-04-07T12:00:13;19.60;61.40
18291;DHT22;9271;48.590;8.866;2023-04-07T12:02:40;20.20;58.70
18291;DHT22;9271;48.590;8.866;2023-04-07T12:05:08;20.90;55.60
18291;DHT22;9271;48.590;8.866;2023-04-07T12:07:35;22.20;57.50
18291;DHT22;9271;48.590;8.866;2023-04-07T12:10:17;22.60;57.20
18291;DHT22;9271;48.590;8.866;2023-04-07T12:12:46;25.50;54.10
18291;DHT22;9271;48.590;8.866;2023-04-07T12:15:13;27.60;48.40
18291;DHT22;9271;48.590;8.866;2023-04-07T12:17:43;27.40;44.70
18291;DHT22;9271;48.590;8.866;2023-04-07T12:20:11;26.70;43.20
18291;DHT22;9271;48.590;8.866;2023-04-07T12:22:38;25.60;45.30
18291;DHT22;9271;48.590;8.866;2023-04-07T12:25:05;24.90;49.00
18291;DHT22;9271;48.590;8.866;2023-04-07T12:27:32;24.80;48.10
18291;DHT22;9271;48.590;8.866;2023-04-07T12:30:00;23.40;46.90
18291;DHT22;9271;48.590;8.866;2023-04-07T12:32:27;22.90;49.70
18291;DHT22;9271;48.590;8.866;2023-04-07T12:34:54;22.00;51.10
18291;DHT22;9271;48.590;8.866;2023-04-07T12:37:21;21.40;50.90
18291;DHT22;9271;48.590;8.866;2023-04-07T12:39:47;20.50;52.60
18291;DHT22;9271;48.590;8.866;2023-04-07T12:42:14;19.50;54.50
18291;DHT22;9271;48.590;8.866;2023-04-07T12:44:41;18.60;57.50
18291;DHT22;9271;48.590;8.866;2023-04-07T12:47:08;17.70;61.60
18291;DHT22;9271;48.590;8.866;2023-04-07T12:49:36;17.30;66.30
18291;DHT22;9271;48.590;8.866;2023-04-07T12:52:03;16.90;71.40
18291;DHT22;9271;48.590;8.866;2023-04-07T12:54:31;16.90;74.20
18291;DHT22;9271;48.590;8.866;2023-04-07T12:56:57;17.10;72.60
18291;DHT22;9271;48.590;8.866;2023-04-07T12:59:24;17.10;73.40
18291;DHT22;9271;48.590;8.866;2023-04-07T13:01:52;17.00;75.70
18291;DHT22;9271;48.590;8.866;2023-04-07T13:04:20;16.70;75.90
18291;DHT22;9271;48.590;8.866;2023-04-07T13:06:47;16.60;78.10
18291;DHT22;9271;48.590;8.866;2023-04-07T13:09:14;15.90;78.80
18291;DHT22;9271;48.590;8.866;2023-04-07T13:11:40;15.50;81.60
18291;DHT22;9271;48.590;8.866;2023-04-07T13:14:07;15.60;81.90
18291;DHT22;9271;48.590;8.866;2023-04-07T13:16:34;15.70;82.80
18291;DHT22;9271;48.590;8.866;2023-04-07T13:19:00;16.20;82.30
18291;DHT22;9271;48.590;8.866;2023-04-07T13:21:29;16.30;81.60
18291;DHT22;9271;48.590;8.866;2023-04-07T13:23:56;16.20;81.70
18291;DHT22;9271;48.590;8.866;2023-04-07T13:26:23;16.50;79.00
18291;DHT22;9271;48.590;8.866;2023-04-07T13:28:50;16.50;78.50
18291;DHT22;9271;48.590;8.866;2023-04-07T13:31:17;16.30;77.80
18291;DHT22;9271;48.590;8.866;2023-04-07T13:33:46;15.90;77.90
18291;DHT22;9271;48.590;8.866;2023-04-07T13:36:12;15.80;76.60
18291;DHT22;9271;48.590;8.866;2023-04-07T13:38:40;15.60;76.90
18291;DHT22;9271;48.590;8.866;2023-04-07T13:41:07;15.90;78.00
18291;DHT22;9271;48.590;8.866;2023-04-07T13:43:34;16.20;76.30
18291;DHT22;9271;48.590;8.866;2023-04-07T13:46:01;16.20;75.40
18291;DHT22;9271;48.590;8.866;2023-04-07T13:48:27;16.30;76.60
18291;DHT22;9271;48.590;8.866;2023-04-07T13:50:54;16.50;77.50
18291;DHT22;9271;48.590;8.866;2023-04-07T13:53:20;16.40;76.60
18291;DHT22;9271;48.590;8.866;2023-04-07T13:55:49;16.20;77.80
18291;DHT22;9271;48.590;8.866;2023-04-07T13:58:16;16.10;79.00
18291;DHT22;9271;48.590;8.866;2023-04-07T14:00:43;16.10;80.00
18291;DHT22;9271;48.590;8.866;2023-04-07T14:03:09;16.20;79.40
18291;DHT22;9271;48.590;8.866;2023-04-07T14:05:36;16.20;79.20
18291;DHT22;9271;48.590;8.866;2023-04-07T14:08:03;16.20;79.60
18291;DHT22;9271;48.590;8.866;2023-04-07T14:10:29;16.40;78.00
18291;DHT22;9271;48.590;8.866;2023-04-07T14:12:59;16.30;79.40
18291;DHT22;9271;48.590;8.866;2023-04-07T14:15:25;16.70;78.80
18291;DHT22;9271;48.590;8.866;2023-04-07T14:17:52;17.10;77.80
18291;DHT22;9271;48.590;8.866;2023-04-07T14:20:19;17.10;74.30
18291;DHT22;9271;48.590;8.866;2023-04-07T14:22:45;17.40;73.40
18291;DHT22;9271;48.590;8.866;2023-04-07T14:25:12;17.40;72.50
18291;DHT22;9271;48.590;8.866;2023-04-07T14:27:39;17.40;71.60
18291;DHT22;9271;48.590;8.866;2023-04-07T14:30:08;17.40;72.00
18291;DHT22;9271;48.590;8.866;2023-04-07T14:32:35;17.60;72.50
18291;DHT22;9271;48.590;8.866;2023-04-07T14:35:01;17.50;70.50
18291;DHT22;9271;48.590;8.866;2023-04-07T14:37:28;17.50;71.70
18291;DHT22;9271;48.590;8.866;2023-04-07T14:39:55;17.40;71.00
18291;DHT22;9271;48.590;8.866;2023-04-07T14:42:22;17.10;71.20
18291;DHT22;9271;48.590;8.866;2023-04-07T14:44:49;17.10;72.30
18291;DHT22;9271;48.590;8.866;2023-04-07T14:47:17;17.40;72.70
18291;DHT22;9271;48.590;8.866;2023-04-07T14:49:44;17.40;71.70
18291;DHT22;9271;48.590;8.866;2023-04-07T14:52:11;17.20;72.10
18291;DHT22;9271;48.590;8.866;2023-04-07T14:54:38;16.90;72.10
18291;DHT22;9271;48.590;8.866;2023-04-07T14:57:05;16.60;72.00
18291;DHT22;9271;48.590;8.866;2023-04-07T14:59:31;16.90;71.60
18291;DHT22;9271;48.590;8.866;2023-04-07T15:01:58;16.70;72.20
18291;DHT22;9271;48.590;8.866;2023-04-07T15:04:26;16.60;72.40
18291;DHT22;9271;48.590;8.866;2023-04-07T15:06:53;16.40;72.90
18291;DHT22;9271;48.590;8.866;2023-04-07T15:09:20;16.20;72.70
18291;DHT22;9271;48.590;8.866;2023-04-07T15:11:47;16.00;73.40
18291;DHT22;9271;48.590;8.866;2023-04-07T15:14:14;16.00;75.30
18291;DHT22;9271;48.590;8.866;2023-04-07T15:16:40;15.90;74.90
18291;DHT22;9271;48.590;8.866;2023-04-07T15:19:07;16.10;74.30
18291;DHT22;9271;48.590;8.866;2023-04-07T15:21:35;16.10;77.00
18291;DHT22;9271;48.590;8.866;2023-04-07T15:24:01;15.80;76.30
18291;DHT22;9271;48.590;8.866;2023-04-07T15:26:28;15.80;75.40
18291;DHT22;9271;48.590;8.866;2023-04-07T15:28:55;15.60;76.50
18291;DHT22;9271;48.590;8.866;2023-04-07T15:31:22;15.60;77.40
18291;DHT22;9271;48.590;8.866;2023-04-07T15:33:51;15.60;77.10
18291;DHT22;9271;48.590;8.866;2023-04-07T15:36:18;15.80;76.20
18291;DHT22;9271;48.590;8.866;2023-04-07T15:38:46;15.60;77.40
18291;DHT22;9271;48.590;8.866;2023-04-07T15:41:14;15.30;79.00
18291;DHT22;9271;48.590;8.866;2023-04-07T15:43:41;15.00;79.00
18291;DHT22;9271;48.590;8.866;2023-04-07T15:46:08;14.80;80.60
18291;DHT22;9271;48.590;8.866;2023-04-07T15:48:34;14.70;82.70
18291;DHT22;9271;48.590;8.866;2023-04-07T15:51:01;14.50;83.10
18291;DHT22;9271;48.590;8.866;2023-04-07T15:53:28;14.30;84.90
18291;DHT22;9271;48.590;8.866;2023-04-07T15:55:56;14.30;85.90
18291;DHT22;9271;48.590;8.866;2023-04-07T15:58:23;14.20;87.40
18291;DHT22;9271;48.590;8.866;2023-04-07T16:00:50;14.00;89.60
18291;DHT22;9271;48.590;8.866;2023-04-07T16:03:16;13.80;90.90